createdAt,value
2018-09-28T00:01:04.022Z,101003.94
2018-09-28T00:03:10.280Z,101004.03
2018-09-28T00:05:16.393Z,101005.41
2018-09-28T00:07:22.530Z,101002.57
2018-09-28T00:09:29.432Z,101004.40
2018-09-28T00:11:37.299Z,100999.59
2018-09-28T00:13:43.368Z,101002.22
2018-09-28T00:15:51.829Z,101005.27
2018-09-28T00:17:58.396Z,101001.77
2018-09-28T00:20:06.575Z,100997.81
2018-09-28T00:22:13.372Z,101000.39
2018-09-28T00:24:19.492Z,100992.48
2018-09-28T00:26:25.761Z,100997.75
2018-09-28T00:28:31.865Z,100991.56
2018-09-28T00:30:37.965Z,100997.61
2018-09-28T00:32:44.647Z,100987.47
2018-09-28T00:34:50.979Z,100982.59
2018-09-28T00:36:57.056Z,100982.13
2018-09-28T00:39:03.284Z,100976.14
2018-09-28T00:41:09.382Z,100973.88
2018-09-28T00:43:15.561Z,100962.50
2018-09-28T00:45:21.691Z,100967.23
2018-09-28T00:47:27.868Z,100964.53
2018-09-28T00:49:40.569Z,100964.08
2018-09-28T00:51:46.647Z,100960.12
2018-09-28T00:53:53.311Z,100958.80
2018-09-28T00:55:59.410Z,100954.84
2018-09-28T00:58:07.958Z,100950.43
2018-09-28T01:00:14.310Z,100957.08
2018-09-28T01:02:20.500Z,100953.33
2018-09-28T01:04:27.687Z,100953.45
2018-09-28T01:06:33.840Z,100958.86
2018-09-28T01:08:40.231Z,100950.16
2018-09-28T01:10:46.980Z,100950.55
2018-09-28T01:12:53.172Z,100954.45
2018-09-28T01:14:59.464Z,100952.22
2018-09-28T01:17:06.733Z,100952.22
2018-09-28T01:19:13.539Z,100948.27
2018-09-28T01:21:19.665Z,100940.72
2018-09-28T01:23:25.874Z,100939.80
2018-09-28T01:25:32.758Z,100940.61
2018-09-28T01:27:38.987Z,100938.37
2018-09-28T01:29:45.148Z,100932.09
2018-09-28T01:31:51.462Z,100934.67
2018-09-28T01:33:57.601Z,100935.47
2018-09-28T01:36:03.829Z,100938.02
2018-09-28T01:38:10.005Z,100930.05
2018-09-28T01:40:16.183Z,100932.53
2018-09-28T01:42:22.253Z,100929.84
2018-09-28T01:44:28.328Z,100935.91
2018-09-28T01:46:34.457Z,100924.44
2018-09-28T01:48:40.659Z,100920.00
2018-09-28T01:50:46.968Z,100925.22
2018-09-28T01:52:53.243Z,100923.84
2018-09-28T01:54:59.359Z,100918.56
2018-09-28T01:57:05.505Z,100911.11
2018-09-28T01:59:11.732Z,100910.19
2018-09-28T02:01:18.497Z,100904.91
2018-09-28T02:03:24.697Z,100907.95
2018-09-28T02:05:30.812Z,100904.52
2018-09-28T02:07:36.919Z,100901.02
2018-09-28T02:09:43.105Z,100901.41
2018-09-28T02:11:49.181Z,100897.92
2018-09-28T02:13:55.360Z,100902.27
2018-09-28T02:16:01.518Z,100906.63
2018-09-28T02:18:07.848Z,100907.45
2018-09-28T02:20:13.953Z,100906.94
2018-09-28T02:22:20.115Z,100910.95
2018-09-28T02:24:26.253Z,100903.90
2018-09-28T02:26:32.443Z,100907.40
2018-09-28T02:28:39.813Z,100908.31
2018-09-28T02:30:46.718Z,100903.04
2018-09-28T02:32:53.623Z,100908.31
2018-09-28T02:35:00.872Z,100903.99
2018-09-28T02:37:08.724Z,100904.91
2018-09-28T02:39:15.773Z,100905.38
2018-09-28T02:41:21.849Z,100897.92
2018-09-28T02:43:28.289Z,100893.50
2018-09-28T02:45:34.359Z,100895.73
2018-09-28T02:47:40.929Z,100895.28
2018-09-28T02:49:47.021Z,100901.41
2018-09-28T02:51:53.111Z,100895.28
2018-09-28T02:53:59.234Z,100901.41
2018-09-28T02:56:05.368Z,100901.48
2018-09-28T02:58:13.200Z,100893.25
2018-09-28T03:00:20.081Z,100892.30
2018-09-28T03:02:26.307Z,100891.94
2018-09-28T03:04:33.124Z,100898.89
2018-09-28T03:06:39.291Z,100893.16
2018-09-28T03:08:45.524Z,100889.20
2018-09-28T03:10:51.871Z,100895.44
2018-09-28T03:12:58.489Z,100886.27
2018-09-28T03:15:04.855Z,100895.89
2018-09-28T03:17:10.967Z,100895.49
2018-09-28T03:19:17.121Z,100888.91
2018-09-28T03:21:23.350Z,100883.28
2018-09-28T03:23:29.655Z,100884.70
2018-09-28T03:25:35.797Z,100885.62
2018-09-28T03:27:41.890Z,100881.20
2018-09-28T03:29:48.047Z,100884.20
2018-09-28T03:31:54.168Z,100880.80
2018-09-28T03:34:00.500Z,100876.39
2018-09-28T03:36:07.615Z,100875.06
2018-09-28T03:38:13.681Z,100876.84
2018-09-28T03:40:20.045Z,100879.94
2018-09-28T03:42:26.115Z,100879.08
2018-09-28T03:44:32.517Z,100876.91
2018-09-28T03:46:38.673Z,100880.00
2018-09-28T03:48:44.752Z,100882.18
2018-09-28T03:50:50.965Z,100883.04
2018-09-28T03:52:57.860Z,100882.18
2018-09-28T03:55:04.030Z,100882.18
2018-09-28T03:57:10.264Z,100884.81
2018-09-28T03:59:16.420Z,100878.22
2018-09-28T04:01:22.552Z,100876.91
2018-09-28T04:03:28.716Z,100876.14
2018-09-28T04:05:34.802Z,100874.33
2018-09-28T04:07:42.440Z,100872.24
2018-09-28T04:09:49.221Z,100878.44
2018-09-28T04:11:55.511Z,100878.49
2018-09-28T04:14:03.837Z,100875.80
2018-09-28T04:16:10.167Z,100880.67
2018-09-28T04:18:16.317Z,100878.95
2018-09-28T04:20:23.067Z,100883.41
2018-09-28T04:22:29.162Z,100882.14
2018-09-28T04:24:35.297Z,100887.87
2018-09-28T04:26:41.509Z,100886.16
2018-09-28T04:28:48.207Z,100880.94
2018-09-28T04:30:54.334Z,100890.11
2018-09-28T04:33:01.602Z,100892.75
2018-09-28T04:35:07.807Z,100888.39
2018-09-28T04:37:13.919Z,100900.25
2018-09-28T04:39:20.369Z,100902.03
2018-09-28T04:41:27.274Z,100902.58
2018-09-28T04:43:34.792Z,100898.75
2018-09-28T04:45:41.085Z,100901.98
2018-09-28T04:47:48.427Z,100906.61
2018-09-28T04:49:54.809Z,100913.86
2018-09-28T04:52:01.053Z,100908.08
2018-09-28T04:54:07.341Z,100915.37
2018-09-28T04:56:13.806Z,100921.77
2018-09-28T04:58:19.931Z,100919.73
2018-09-28T05:00:27.154Z,100922.42
2018-09-28T05:02:33.303Z,100916.00
2018-09-28T05:04:39.965Z,100918.74
2018-09-28T05:06:46.757Z,100917.57
2018-09-28T05:08:53.630Z,100921.58
2018-09-28T05:11:00.465Z,100925.27
2018-09-28T05:13:06.663Z,100927.64
2018-09-28T05:15:12.815Z,100926.62
2018-09-28T05:17:19.749Z,100929.90
2018-09-28T05:19:26.241Z,100933.98
2018-09-28T05:21:32.281Z,100933.69
2018-09-28T05:23:38.470Z,100936.05
2018-09-28T05:25:44.716Z,100933.96
2018-09-28T05:27:50.835Z,100941.32
2018-09-28T05:29:58.493Z,100940.00
2018-09-28T05:32:05.199Z,100935.09
2018-09-28T05:34:12.146Z,100935.95
2018-09-28T05:36:19.687Z,100943.85
2018-09-28T05:38:26.504Z,100942.91
2018-09-28T05:40:33.038Z,100947.20
2018-09-28T05:42:40.956Z,100942.34
2018-09-28T05:44:47.399Z,100945.48
2018-09-28T05:46:56.747Z,100954.38
2018-09-28T05:49:04.360Z,100950.59
2018-09-28T05:51:10.508Z,100955.67
2018-09-28T05:53:17.066Z,100948.33
2018-09-28T05:55:23.954Z,100953.59
2018-09-28T05:57:31.297Z,100956.31
2018-09-28T05:59:42.624Z,100962.40
2018-09-28T06:01:53.856Z,100957.81
2018-09-28T06:04:05.064Z,100962.33
2018-09-28T06:06:11.255Z,100958.55
2018-09-28T06:08:17.564Z,100963.95
2018-09-28T06:10:23.938Z,100962.84
2018-09-28T06:12:33.252Z,100961.28
2018-09-28T06:14:41.927Z,100963.45
2018-09-28T06:16:48.357Z,100969.98
2018-09-28T06:18:54.970Z,100968.99
2018-09-28T06:21:01.455Z,100971.57
2018-09-28T06:23:08.296Z,100974.20
2018-09-28T06:25:16.639Z,100972.34
2018-09-28T06:27:24.268Z,100981.11
2018-09-28T06:29:30.361Z,100984.14
2018-09-28T06:31:36.877Z,100991.54
2018-09-28T06:33:43.492Z,100984.41
2018-09-28T06:35:49.673Z,100986.57
2018-09-28T06:37:56.531Z,100988.61
2018-09-28T06:40:02.740Z,100998.95
2018-09-28T06:42:08.898Z,100994.30
2018-09-28T06:44:15.498Z,100993.23
2018-09-28T06:46:21.696Z,100996.08
2018-09-28T06:48:27.872Z,101001.09
2018-09-28T06:50:34.743Z,101003.88
2018-09-28T06:52:41.055Z,101002.77
2018-09-28T06:54:47.284Z,100998.56
2018-09-28T06:56:55.843Z,101002.63
2018-09-28T06:59:02.038Z,101007.58
2018-09-28T07:01:08.356Z,101004.28
2018-09-28T07:03:14.474Z,101004.88
2018-09-28T07:05:20.608Z,101008.17
2018-09-28T07:07:26.753Z,101010.14
2018-09-28T07:09:33.017Z,101009.38
2018-09-28T07:13:45.717Z,101004.42
2018-09-28T07:15:51.855Z,101006.42
2018-09-28T07:17:58.715Z,101003.97
2018-09-28T07:20:05.010Z,101003.76
2018-09-28T07:22:11.980Z,101012.78
2018-09-28T07:24:18.235Z,101015.61
2018-09-28T07:26:25.000Z,101009.41
2018-09-28T07:28:31.146Z,101012.23
2018-09-28T07:30:37.604Z,101018.55
2018-09-28T07:32:44.716Z,101013.05
2018-09-28T07:34:51.629Z,101017.59
2018-09-28T07:36:57.870Z,101017.27
2018-09-28T07:39:05.780Z,101022.73
2018-09-28T07:41:11.911Z,101024.33
2018-09-28T07:43:18.076Z,101033.25
2018-09-28T07:45:24.418Z,101026.45
2018-09-28T07:47:30.683Z,101028.78
2018-09-28T07:49:36.836Z,101032.39
2018-09-28T07:51:42.945Z,101036.82
2018-09-28T07:53:49.200Z,101032.53
2018-09-28T07:55:55.391Z,101033.95
2018-09-28T07:58:01.691Z,101023.44
2018-09-28T08:00:07.938Z,101030.55
2018-09-28T08:02:14.946Z,101022.31
2018-09-28T08:04:21.062Z,101028.69
2018-09-28T08:06:27.175Z,101031.48
2018-09-28T08:08:33.334Z,101030.78
2018-09-28T08:10:39.541Z,101027.80
2018-09-28T08:12:45.725Z,101029.28
2018-09-28T08:14:51.919Z,101028.21
2018-09-28T08:16:58.534Z,101032.70
2018-09-28T08:19:06.662Z,101028.02
2018-09-28T08:21:12.815Z,101029.95
2018-09-28T08:23:18.960Z,101030.57
2018-09-28T08:25:25.086Z,101021.55
2018-09-28T08:27:31.337Z,101029.64
2018-09-28T08:29:39.328Z,101033.87
2018-09-28T08:31:45.537Z,101031.83
2018-09-28T08:33:51.842Z,101037.73
2018-09-28T08:35:58.407Z,101030.08
2018-09-28T08:38:04.625Z,101042.14
2018-09-28T08:40:11.139Z,101040.20
2018-09-28T08:42:18.459Z,101037.84
2018-09-28T08:44:24.574Z,101041.27
2018-09-28T08:46:32.723Z,101039.38
2018-09-28T08:48:39.088Z,101043.13
2018-09-28T08:50:45.266Z,101044.67
2018-09-28T08:52:51.411Z,101039.30
2018-09-28T08:54:57.707Z,101037.40
2018-09-28T08:57:05.050Z,101038.65
2018-09-28T08:59:11.423Z,101043.77
2018-09-28T09:01:17.840Z,101041.05
2018-09-28T09:03:24.131Z,101042.11
2018-09-28T09:05:30.892Z,101037.67
2018-09-28T09:07:37.026Z,101034.30
2018-09-28T09:09:43.187Z,101036.41
2018-09-28T09:11:49.331Z,101029.98
2018-09-28T09:13:55.468Z,101035.10
2018-09-28T09:16:01.730Z,101030.86
2018-09-28T09:18:08.000Z,101033.28
2018-09-28T09:20:14.350Z,101039.26
2018-09-28T09:22:20.460Z,101035.09
2018-09-28T09:24:26.802Z,101034.94
2018-09-28T09:26:32.944Z,101034.24
2018-09-28T09:28:39.153Z,101038.97
2018-09-28T09:30:45.517Z,101040.14
2018-09-28T09:32:52.344Z,101034.25
2018-09-28T09:34:58.477Z,101032.70
2018-09-28T09:37:06.740Z,101035.08
2018-09-28T09:39:13.341Z,101038.32
2018-09-28T09:41:19.475Z,101032.08
2018-09-28T09:43:26.266Z,101037.12
2018-09-28T09:45:32.338Z,101026.78
2018-09-28T09:47:38.527Z,101020.27
2018-09-28T09:49:44.678Z,101024.44
2018-09-28T09:51:50.913Z,101023.70
2018-09-28T09:53:57.152Z,101026.47
2018-09-28T09:56:03.404Z,101022.71
2018-09-28T09:58:09.615Z,101025.09
2018-09-28T10:00:21.096Z,101021.77
2018-09-28T10:02:32.605Z,101022.27
2018-09-28T10:04:38.868Z,101018.47
2018-09-28T10:06:47.070Z,101019.72
2018-09-28T10:08:53.274Z,101017.72
2018-09-28T10:10:59.445Z,101018.85
2018-09-28T10:13:05.600Z,101015.09
2018-09-28T10:15:12.897Z,101011.33
2018-09-28T10:17:19.127Z,101012.38
2018-09-28T10:19:25.276Z,101013.41
2018-09-28T10:21:32.415Z,101007.94
2018-09-28T10:23:39.243Z,101006.78
2018-09-28T10:25:46.384Z,101002.98
2018-09-28T10:27:53.424Z,100999.66
2018-09-28T10:29:59.544Z,100998.89
2018-09-28T10:32:05.737Z,100997.28
2018-09-28T10:34:11.909Z,101000.53
2018-09-28T10:36:18.038Z,100996.25
2018-09-28T10:38:24.176Z,100994.62
2018-09-28T10:40:30.315Z,101000.13
2018-09-28T10:42:36.453Z,100997.08
2018-09-28T10:44:42.586Z,100992.33
2018-09-28T10:46:48.792Z,100987.18
2018-09-28T10:48:55.021Z,100990.40
2018-09-28T10:51:01.174Z,100992.28
2018-09-28T10:53:07.485Z,100988.50
2018-09-28T10:55:13.561Z,100985.66
2018-09-28T10:57:19.712Z,100980.73
2018-09-28T10:59:25.851Z,100973.02
2018-09-28T11:01:33.651Z,100970.05
2018-09-28T11:03:40.363Z,100965.97
2018-09-28T11:05:46.948Z,100974.12
2018-09-28T11:07:53.083Z,100971.63
2018-09-28T11:09:59.272Z,100967.92
2018-09-28T11:12:05.421Z,100967.23
2018-09-28T11:14:12.249Z,100959.55
2018-09-28T11:16:18.416Z,100958.85
2018-09-28T11:18:24.577Z,100957.43
2018-09-28T11:20:32.364Z,100950.69
2018-09-28T11:22:38.505Z,100954.45
2018-09-28T11:24:45.068Z,100952.05
2018-09-28T11:26:51.528Z,100952.25
2018-09-28T11:28:57.941Z,100955.64
2018-09-28T11:31:04.545Z,100949.18
2018-09-28T11:33:13.250Z,100949.91
2018-09-28T11:35:19.479Z,100951.53
2018-09-28T11:37:26.049Z,100951.05
2018-09-28T11:39:32.433Z,100943.41
2018-09-28T11:41:38.648Z,100940.09
2018-09-28T11:43:45.037Z,100937.59
2018-09-28T11:45:51.419Z,100944.40
2018-09-28T11:47:57.409Z,100928.96
2018-09-28T11:50:03.753Z,100926.11
2018-09-28T11:52:10.228Z,100933.11
2018-09-28T11:54:16.431Z,100922.78
2018-09-28T11:56:22.865Z,100917.84
2018-09-28T11:58:29.310Z,100916.03
2018-09-28T12:00:36.884Z,100923.89
2018-09-28T12:02:43.109Z,100915.80
2018-09-28T12:04:49.344Z,100913.30
2018-09-28T12:06:55.731Z,100907.87
2018-09-28T12:09:01.911Z,100907.77
2018-09-28T12:11:08.333Z,100905.73
2018-09-28T12:13:15.014Z,100909.16
2018-09-28T12:15:21.238Z,100905.31
2018-09-28T12:17:27.545Z,100909.93
2018-09-28T12:19:33.847Z,100902.70
2018-09-28T12:21:40.064Z,100901.99
2018-09-28T12:23:46.196Z,100911.11
2018-09-28T12:25:52.387Z,100905.94
2018-09-28T12:27:59.266Z,100908.84
2018-09-28T12:30:05.646Z,100901.13
2018-09-28T12:32:15.134Z,100902.94
2018-09-28T12:34:21.359Z,100904.65
2018-09-28T12:36:27.781Z,100899.09
2018-09-28T12:38:34.065Z,100897.28
2018-09-28T12:40:40.780Z,100908.08
2018-09-28T12:42:47.841Z,100903.89
2018-09-28T12:44:53.991Z,100904.98
2018-09-28T12:47:00.196Z,100905.61
2018-09-28T12:49:07.256Z,100899.80
2018-09-28T12:51:14.039Z,100896.08
2018-09-28T12:53:20.282Z,100895.36
2018-09-28T12:55:27.461Z,100885.45
2018-09-28T12:57:33.653Z,100882.92
2018-09-28T12:59:39.831Z,100881.97
2018-09-28T13:01:46.774Z,100880.91
2018-09-28T13:03:53.037Z,100880.33
2018-09-28T13:05:59.795Z,100876.58
2018-09-28T13:08:06.199Z,100874.19
2018-09-28T13:10:12.826Z,100865.70
2018-09-28T13:12:19.269Z,100870.59
2018-09-28T13:14:25.638Z,100872.06
2018-09-28T13:16:31.787Z,100870.86
2018-09-28T13:18:38.292Z,100869.42
2018-09-28T13:20:44.881Z,100865.55
2018-09-28T13:22:51.100Z,100861.34
2018-09-28T13:24:57.344Z,100857.59
2018-09-28T13:27:04.242Z,100857.72
2018-09-28T13:29:11.101Z,100857.02
2018-09-28T13:31:17.908Z,100854.97
2018-09-28T13:33:24.505Z,100856.67
2018-09-28T13:35:30.806Z,100856.53
2018-09-28T13:37:36.952Z,100857.17
2018-09-28T13:39:43.680Z,100865.05
2018-09-28T13:41:50.761Z,100856.56
2018-09-28T13:43:57.927Z,100858.05
2018-09-28T13:46:04.447Z,100855.73
2018-09-28T13:48:11.391Z,100850.77
2018-09-28T13:50:17.645Z,100860.48
2018-09-28T13:52:24.869Z,100854.28
2018-09-28T13:54:31.905Z,100855.62
2018-09-28T13:56:38.153Z,100859.63
2018-09-28T13:58:44.365Z,100864.48
2018-09-28T14:00:51.045Z,100866.30
2018-09-28T14:02:57.274Z,100864.95
2018-09-28T14:05:07.186Z,100861.70
2018-09-28T14:07:15.394Z,100866.80
2018-09-28T14:09:21.393Z,100868.50
2018-09-28T14:11:27.923Z,100868.02
2018-09-28T14:13:34.461Z,100860.73
2018-09-28T14:15:40.664Z,100870.81
2018-09-28T14:17:47.108Z,100859.18
2018-09-28T14:19:54.196Z,100858.33
2018-09-28T14:22:00.725Z,100852.88
2018-09-28T14:24:07.017Z,100854.55
2018-09-28T14:26:13.401Z,100855.81
2018-09-28T14:28:20.442Z,100856.19
2018-09-28T14:30:26.785Z,100849.89
2018-09-28T14:32:32.891Z,100850.60
2018-09-28T14:34:39.126Z,100855.24
2018-09-28T14:36:45.400Z,100849.77
2018-09-28T14:38:52.425Z,100848.21
2018-09-28T14:40:58.647Z,100846.39
2018-09-28T14:43:04.821Z,100845.77
2018-09-28T14:45:11.665Z,100844.44
2018-09-28T14:47:17.849Z,100851.00
2018-09-28T14:49:24.096Z,100854.89
2018-09-28T14:51:30.160Z,100855.38
2018-09-28T14:53:36.677Z,100862.42
2018-09-28T14:55:43.088Z,100856.34
2018-09-28T14:57:49.278Z,100861.30
2018-09-28T14:59:55.595Z,100862.16
2018-09-28T15:02:01.862Z,100856.82
2018-09-28T15:04:08.068Z,100850.63
2018-09-28T15:06:14.242Z,100853.67
2018-09-28T15:08:20.622Z,100847.96
2018-09-28T15:10:27.157Z,100852.45
2018-09-28T15:12:33.370Z,100853.78
2018-09-28T15:14:39.692Z,100851.97
2018-09-28T15:16:45.994Z,100860.45
2018-09-28T15:18:53.208Z,100862.27
2018-09-28T15:20:59.552Z,100862.27
2018-09-28T15:23:06.003Z,100859.74
2018-09-28T15:25:12.727Z,100860.33
2018-09-28T15:27:19.234Z,100863.96
2018-09-28T15:31:36.299Z,100860.69
2018-09-28T15:33:42.531Z,100868.09
2018-09-28T15:35:48.731Z,100870.56
2018-09-28T15:37:55.076Z,100871.40
2018-09-28T15:40:01.227Z,100870.80
2018-09-28T15:42:07.773Z,100872.86
2018-09-28T15:44:14.033Z,100877.21
2018-09-28T15:46:20.485Z,100875.71
2018-09-28T15:48:26.555Z,100874.63
2018-09-28T15:50:33.128Z,100877.53
2018-09-28T15:52:39.450Z,100877.27
2018-09-28T15:54:45.785Z,100888.17
2018-09-28T15:56:52.043Z,100886.68
2018-09-28T15:58:58.100Z,100894.92
2018-09-28T16:01:04.376Z,100895.64
2018-09-28T16:03:11.237Z,100902.27
2018-09-28T16:05:17.585Z,100908.05
2018-09-28T16:07:23.808Z,100907.44
2018-09-28T16:09:29.969Z,100913.35
2018-09-28T16:11:36.391Z,100914.06
2018-09-28T16:13:42.564Z,100913.31
2018-09-28T16:15:48.730Z,100920.55
2018-09-28T16:17:54.923Z,100927.83
2018-09-28T16:20:01.243Z,100933.74
2018-09-28T16:22:07.558Z,100933.03
2018-09-28T16:24:13.853Z,100935.28
2018-09-28T16:26:19.987Z,100938.05
2018-09-28T16:28:26.315Z,100943.13
2018-09-28T16:34:53.535Z,100963.41
2018-09-28T16:36:59.774Z,100972.41
2018-09-28T16:39:08.785Z,100973.78
2018-09-28T16:41:15.115Z,100972.16
2018-09-28T16:43:21.418Z,100971.14
2018-09-28T16:45:27.788Z,100975.56
2018-09-28T16:47:33.993Z,100984.35
2018-09-28T16:49:40.129Z,100989.34
2018-09-28T16:51:46.395Z,101005.16
2018-09-28T16:53:52.827Z,101008.61
2018-09-28T16:55:58.969Z,101019.63
2018-09-28T16:58:05.344Z,101024.63
2018-09-28T17:00:11.782Z,101023.80
2018-09-28T17:02:18.168Z,101034.21
2018-09-28T17:04:24.369Z,101033.59
2018-09-28T17:06:30.739Z,101035.23
2018-09-28T17:08:37.693Z,101036.05
2018-09-28T17:10:43.862Z,101050.69
2018-09-28T17:12:50.436Z,101049.48
2018-09-28T17:14:56.802Z,101052.31
2018-09-28T17:17:06.688Z,101052.96
2018-09-28T17:19:12.917Z,101070.45
2018-09-28T17:21:19.223Z,101068.09
2018-09-28T17:23:25.488Z,101072.53
2018-09-28T17:25:32.299Z,101071.59
2018-09-28T17:27:38.462Z,101074.06
2018-09-28T17:29:44.765Z,101080.69
2018-09-28T17:31:51.020Z,101080.59
2018-09-28T17:34:03.397Z,101082.80
2018-09-28T17:36:11.262Z,101097.86
2018-09-28T17:38:17.514Z,101097.95
2018-09-28T17:40:23.810Z,101095.74
2018-09-28T17:42:30.196Z,101106.45
2018-09-28T17:44:36.389Z,101120.33
2018-09-28T17:46:42.607Z,101132.70
2018-09-28T17:48:48.885Z,101129.73
2018-09-28T17:50:55.215Z,101131.20
2018-09-28T17:53:01.625Z,101132.48
2018-09-28T17:55:07.904Z,101141.77
2018-09-28T17:57:14.137Z,101148.81
2018-09-28T17:59:20.363Z,101154.38
2018-09-28T18:01:26.658Z,101154.92
2018-09-28T18:03:32.877Z,101159.88
2018-09-28T18:05:39.148Z,101164.78
2018-09-28T18:07:45.789Z,101172.42
2018-09-28T18:09:52.027Z,101186.59
2018-09-28T18:11:59.033Z,101188.42
2018-09-28T18:14:05.293Z,101187.47
2018-09-28T18:16:12.043Z,101190.16
2018-09-28T18:18:18.235Z,101192.73
2018-09-28T18:20:24.458Z,101202.98
2018-09-28T18:22:30.719Z,101206.02
2018-09-28T18:24:36.993Z,101208.91
2018-09-28T18:26:43.174Z,101210.80
2018-09-28T18:28:49.384Z,101216.09
2018-09-28T18:30:55.534Z,101220.61
2018-09-28T18:33:01.821Z,101217.49
2018-09-28T18:35:08.189Z,101231.61
2018-09-28T18:37:14.952Z,101240.41
2018-09-28T18:39:21.430Z,101244.63
2018-09-28T18:41:27.691Z,101249.67
2018-09-28T18:43:33.891Z,101256.86
2018-09-28T18:45:40.050Z,101258.72
2018-09-28T18:47:46.257Z,101258.88
2018-09-28T18:49:52.481Z,101267.13
2018-09-28T18:51:58.689Z,101276.00
2018-09-28T18:54:04.864Z,101275.64
2018-09-28T18:56:11.123Z,101278.81
2018-09-28T18:58:17.266Z,101282.00
2018-09-28T19:00:23.523Z,101287.30
2018-09-28T19:02:29.884Z,101289.95
2018-09-28T19:04:36.200Z,101292.13
2018-09-28T19:06:42.462Z,101289.58
2018-09-28T19:08:48.680Z,101296.34
2018-09-28T19:10:54.971Z,101300.38
2018-09-28T19:13:01.285Z,101295.25
2018-09-28T19:15:07.993Z,101297.09
2018-09-28T19:17:14.219Z,101293.22
2018-09-28T19:19:20.451Z,101299.91
2018-09-28T19:21:26.672Z,101304.97
2018-09-28T19:23:32.836Z,101310.27
2018-09-28T19:25:39.246Z,101316.33
2018-09-28T19:27:45.386Z,101309.25
2018-09-28T19:29:51.654Z,101306.20
2018-09-28T19:31:57.818Z,101306.59
2018-09-28T19:34:04.065Z,101312.36
2018-09-28T19:36:10.249Z,101314.14
2018-09-28T19:38:16.446Z,101315.17
2018-09-28T19:40:22.709Z,101318.34
2018-09-28T19:42:28.908Z,101327.22
2018-09-28T19:44:35.078Z,101328.08
2018-09-28T19:46:41.372Z,101332.84
2018-09-28T19:48:47.622Z,101335.43
2018-09-28T19:50:53.829Z,101344.23
2018-09-28T19:53:00.094Z,101351.72
2018-09-28T19:55:06.348Z,101354.36
2018-09-28T19:57:12.577Z,101353.97
2018-09-28T19:59:18.758Z,101347.47
2018-09-28T20:01:24.988Z,101349.72
2018-09-28T20:03:31.171Z,101353.80
2018-09-28T20:05:37.377Z,101358.23
2018-09-28T20:07:43.756Z,101362.50
2018-09-28T20:09:50.002Z,101362.44
2018-09-28T20:11:56.221Z,101368.59
2018-09-28T20:14:02.464Z,101373.03
2018-09-28T20:16:08.597Z,101373.43
2018-09-28T20:18:14.728Z,101364.56
2018-09-28T20:20:20.899Z,101369.23
2018-09-28T20:22:27.074Z,101366.58
2018-09-28T20:24:33.244Z,101367.45
2018-09-28T20:26:39.529Z,101369.23
2018-09-28T20:28:45.843Z,101372.41
2018-09-28T20:30:51.984Z,101365.88
2018-09-28T20:32:58.139Z,101374.69
2018-09-28T20:35:04.312Z,101383.09
2018-09-28T20:37:10.486Z,101381.55
2018-09-28T20:39:16.625Z,101375.33
2018-09-28T20:41:22.806Z,101372.28
2018-09-28T20:43:29.622Z,101374.98
2018-09-28T20:45:35.752Z,101384.20
2018-09-28T20:47:42.201Z,101373.73
2018-09-28T20:49:48.459Z,101384.66
2018-09-28T20:51:54.644Z,101383.40
2018-09-28T20:54:01.310Z,101388.80
2018-09-28T20:56:07.503Z,101391.50
2018-09-28T20:58:13.716Z,101394.16
2018-09-28T21:00:19.879Z,101395.02
2018-09-28T21:02:26.181Z,101390.18
2018-09-28T21:04:32.413Z,101396.34
2018-09-28T21:06:38.590Z,101398.59
2018-09-28T21:08:44.758Z,101406.53
2018-09-28T21:10:50.943Z,101411.30
2018-09-28T21:12:57.103Z,101404.28
2018-09-28T21:15:03.290Z,101406.53
2018-09-28T21:17:09.602Z,101408.38
2018-09-28T21:19:15.779Z,101410.78
2018-09-28T21:21:21.926Z,101411.28
2018-09-28T21:23:28.268Z,101415.25
2018-09-28T21:25:34.359Z,101417.53
2018-09-28T21:27:40.522Z,101414.02
2018-09-28T21:29:46.659Z,101414.94
2018-09-28T21:31:52.838Z,101411.89
2018-09-28T21:33:59.010Z,101413.22
2018-09-28T21:36:05.349Z,101413.68
2018-09-28T21:38:11.513Z,101421.97
2018-09-28T21:40:17.682Z,101410.91
2018-09-28T21:42:23.978Z,101416.11
2018-09-28T21:44:30.275Z,101410.78
2018-09-28T21:46:36.559Z,101398.81
2018-09-28T21:48:42.705Z,101404.80
2018-09-28T21:50:48.892Z,101398.59
2018-09-28T21:52:55.200Z,101399.58
2018-09-28T21:55:01.334Z,101396.56
2018-09-28T21:57:07.552Z,101405.09
2018-09-28T21:59:13.713Z,101399.06
2018-09-28T22:01:20.575Z,101396.56
2018-09-28T22:03:26.956Z,101399.22
2018-09-28T22:05:33.072Z,101400.27
2018-09-28T22:07:39.350Z,101402.61
2018-09-28T22:09:45.472Z,101400.94
2018-09-28T22:11:51.650Z,101412.09
2018-09-28T22:13:57.970Z,101411.69
2018-09-28T22:16:04.301Z,101409.10
2018-09-28T22:18:10.687Z,101412.77
2018-09-28T22:20:16.788Z,101414.55
2018-09-28T22:22:22.943Z,101412.77
2018-09-28T22:24:29.097Z,101419.38
2018-09-28T22:26:35.212Z,101418.98
2018-09-28T22:28:41.284Z,101418.98
2018-09-28T22:30:47.335Z,101419.84
2018-09-28T22:32:53.433Z,101415.47
2018-09-28T22:34:59.670Z,101412.42
2018-09-28T22:37:06.408Z,101415.12
2018-09-28T22:39:12.988Z,101418.73
2018-09-28T22:41:19.195Z,101428.05
2018-09-28T22:43:25.422Z,101426.33
2018-09-28T22:45:31.551Z,101431.62
2018-09-28T22:47:37.737Z,101441.81
2018-09-28T22:49:43.855Z,101444.55
2018-09-28T22:51:49.941Z,101443.75
2018-09-28T22:53:56.102Z,101451.28
2018-09-28T22:56:02.244Z,101447.37
2018-09-28T22:58:08.430Z,101453.68
2018-09-28T23:00:14.549Z,101455.13
2018-09-28T23:02:20.626Z,101451.30
2018-09-28T23:04:26.885Z,101457.11
2018-09-28T23:06:33.050Z,101451.51
2018-09-28T23:08:39.216Z,101457.31
2018-09-28T23:10:45.483Z,101457.31
2018-09-28T23:12:57.426Z,101456.95
2018-09-28T23:15:04.348Z,101458.27
2018-09-28T23:17:10.553Z,101459.66
2018-09-28T23:19:16.786Z,101461.44
2018-09-28T23:21:23.555Z,101472.48
2018-09-28T23:23:29.668Z,101471.61
2018-09-28T23:25:35.778Z,101473.86
2018-09-28T23:27:41.944Z,101478.74
2018-09-28T23:29:48.033Z,101477.52
2018-09-28T23:31:54.229Z,101473.60
2018-09-28T23:34:00.333Z,101482.80
2018-09-28T23:36:06.911Z,101474.52
2018-09-28T23:38:13.032Z,101472.33
2018-09-28T23:40:19.129Z,101483.00
2018-09-28T23:42:26.249Z,101484.03
2018-09-28T23:44:32.382Z,101491.19
2018-09-28T23:46:38.744Z,101485.56
2018-09-28T23:48:44.865Z,101487.80
2018-09-28T23:50:50.960Z,101495.02
2018-09-28T23:52:57.176Z,101485.50
2018-09-28T23:55:03.324Z,101493.08
2018-09-28T23:57:09.452Z,101501.10
2018-09-28T23:59:15.684Z,101499.89
